sensor_id;sensor_type;location;lat;lon;timestamp;P1;durP1;ratioP1;P2;durP2;ratioP2
47153;SDS011;32907;41.412;2.164;2022-12-01T00:01:35;6.88;;;4.50;;
47153;SDS011;32907;41.412;2.164;2022-12-01T00:04:03;7.40;;;4.78;;
47153;SDS011;32907;41.412;2.164;2022-12-01T00:06:31;8.48;;;4.85;;
47153;SDS011;32907;41.412;2.164;2022-12-01T00:08:59;7.93;;;4.68;;
47153;SDS011;32907;41.412;2.164;2022-12-01T00:11:46;7.85;;;4.00;;
47153;SDS011;32907;41.412;2.164;2022-12-01T00:14:15;8.82;;;4.07;;
47153;SDS011;32907;41.412;2.164;2022-12-01T00:16:43;6.75;;;4.13;;
47153;SDS011;32907;41.412;2.164;2022-12-01T00:19:11;7.57;;;4.30;;
47153;SDS011;32907;41.412;2.164;2022-12-01T00:21:39;7.97;;;4.40;;
47153;SDS011;32907;41.412;2.164;2022-12-01T00:24:08;7.28;;;4.05;;
47153;SDS011;32907;41.412;2.164;2022-12-01T00:26:37;7.53;;;4.30;;
47153;SDS011;32907;41.412;2.164;2022-12-01T00:29:05;5.90;;;3.60;;
47153;SDS011;32907;41.412;2.164;2022-12-01T00:31:32;7.35;;;3.65;;
47153;SDS011;32907;41.412;2.164;2022-12-01T00:34:00;5.78;;;3.40;;
47153;SDS011;32907;41.412;2.164;2022-12-01T00:36:35;6.65;;;3.38;;
47153;SDS011;32907;41.412;2.164;2022-12-01T00:39:03;6.28;;;3.33;;
47153;SDS011;32907;41.412;2.164;2022-12-01T00:41:31;9.95;;;3.65;;
47153;SDS011;32907;41.412;2.164;2022-12-01T00:44:02;4.88;;;3.08;;
47153;SDS011;32907;41.412;2.164;2022-12-01T00:46:30;5.30;;;2.90;;
47153;SDS011;32907;41.412;2.164;2022-12-01T00:48:58;3.70;;;2.60;;
47153;SDS011;32907;41.412;2.164;2022-12-01T00:51:26;4.88;;;3.00;;
47153;SDS011;32907;41.412;2.164;2022-12-01T00:53:53;5.53;;;2.80;;
47153;SDS011;32907;41.412;2.164;2022-12-01T00:56:21;5.55;;;2.75;;
47153;SDS011;32907;41.412;2.164;2022-12-01T00:58:49;5.82;;;2.80;;
47153;SDS011;32907;41.412;2.164;2022-12-01T01:01:17;5.13;;;2.80;;
47153;SDS011;32907;41.412;2.164;2022-12-01T01:03:45;4.55;;;2.50;;
47153;SDS011;32907;41.412;2.164;2022-12-01T01:06:13;5.20;;;2.65;;
47153;SDS011;32907;41.412;2.164;2022-12-01T01:08:40;5.95;;;2.35;;
47153;SDS011;32907;41.412;2.164;2022-12-01T01:11:09;4.55;;;2.00;;
47153;SDS011;32907;41.412;2.164;2022-12-01T01:13:37;4.93;;;2.30;;
47153;SDS011;32907;41.412;2.164;2022-12-01T01:16:10;3.83;;;2.50;;
47153;SDS011;32907;41.412;2.164;2022-12-01T01:21:11;4.63;;;2.88;;
47153;SDS011;32907;41.412;2.164;2022-12-01T01:23:40;7.78;;;3.25;;
47153;SDS011;32907;41.412;2.164;2022-12-01T01:28:44;5.63;;;3.80;;
47153;SDS011;32907;41.412;2.164;2022-12-01T01:31:14;8.48;;;3.88;;
47153;SDS011;32907;41.412;2.164;2022-12-01T01:33:44;7.22;;;4.03;;
47153;SDS011;32907;41.412;2.164;2022-12-01T01:36:12;5.88;;;4.30;;
47153;SDS011;32907;41.412;2.164;2022-12-01T01:38:41;7.93;;;4.35;;
47153;SDS011;32907;41.412;2.164;2022-12-01T01:41:09;6.63;;;4.43;;
47153;SDS011;32907;41.412;2.164;2022-12-01T01:43:45;5.95;;;3.92;;
47153;SDS011;32907;41.412;2.164;2022-12-01T01:46:18;12.55;;;4.95;;
47153;SDS011;32907;41.412;2.164;2022-12-01T01:48:53;6.88;;;4.03;;
47153;SDS011;32907;41.412;2.164;2022-12-01T01:54:11;4.40;;;3.35;;
47153;SDS011;32907;41.412;2.164;2022-12-01T01:56:43;5.75;;;3.92;;
47153;SDS011;32907;41.412;2.164;2022-12-01T01:59:20;6.57;;;3.60;;
47153;SDS011;32907;41.412;2.164;2022-12-01T02:01:55;7.55;;;3.58;;
47153;SDS011;32907;41.412;2.164;2022-12-01T02:04:28;5.88;;;3.88;;
47153;SDS011;32907;41.412;2.164;2022-12-01T02:06:56;6.22;;;3.60;;
47153;SDS011;32907;41.412;2.164;2022-12-01T02:09:24;5.60;;;3.30;;
47153;SDS011;32907;41.412;2.164;2022-12-01T02:23:01;5.45;;;3.40;;
47153;SDS011;32907;41.412;2.164;2022-12-01T02:25:39;6.35;;;3.25;;
47153;SDS011;32907;41.412;2.164;2022-12-01T02:34:01;3.72;;;2.72;;
47153;SDS011;32907;41.412;2.164;2022-12-01T02:42:13;5.47;;;2.97;;
47153;SDS011;32907;41.412;2.164;2022-12-01T02:45:08;8.75;;;3.10;;
47153;SDS011;32907;41.412;2.164;2022-12-01T02:47:40;4.65;;;2.85;;
47153;SDS011;32907;41.412;2.164;2022-12-01T02:50:09;5.65;;;3.40;;
47153;SDS011;32907;41.412;2.164;2022-12-01T02:52:39;3.92;;;2.60;;
47153;SDS011;32907;41.412;2.164;2022-12-01T02:55:08;4.28;;;2.88;;
47153;SDS011;32907;41.412;2.164;2022-12-01T02:57:36;4.47;;;3.40;;
47153;SDS011;32907;41.412;2.164;2022-12-01T03:00:04;6.57;;;3.20;;
47153;SDS011;32907;41.412;2.164;2022-12-01T03:05:51;6.63;;;2.95;;
47153;SDS011;32907;41.412;2.164;2022-12-01T03:11:13;7.78;;;3.85;;
47153;SDS011;32907;41.412;2.164;2022-12-01T03:13:56;6.40;;;3.15;;
47153;SDS011;32907;41.412;2.164;2022-12-01T03:16:44;5.65;;;3.30;;
47153;SDS011;32907;41.412;2.164;2022-12-01T03:19:28;4.38;;;3.05;;
47153;SDS011;32907;41.412;2.164;2022-12-01T03:22:00;7.32;;;3.38;;
47153;SDS011;32907;41.412;2.164;2022-12-01T03:24:36;5.32;;;2.85;;
47153;SDS011;32907;41.412;2.164;2022-12-01T03:27:07;5.20;;;3.38;;
47153;SDS011;32907;41.412;2.164;2022-12-01T03:29:44;4.50;;;3.45;;
47153;SDS011;32907;41.412;2.164;2022-12-01T03:32:28;6.57;;;3.17;;
47153;SDS011;32907;41.412;2.164;2022-12-01T03:38:10;5.65;;;3.33;;
47153;SDS011;32907;41.412;2.164;2022-12-01T03:40:42;6.47;;;3.45;;
47153;SDS011;32907;41.412;2.164;2022-12-01T03:43:14;4.63;;;3.35;;
47153;SDS011;32907;41.412;2.164;2022-12-01T03:45:57;6.10;;;3.80;;
47153;SDS011;32907;41.412;2.164;2022-12-01T03:48:33;6.40;;;3.88;;
47153;SDS011;32907;41.412;2.164;2022-12-01T03:51:15;4.57;;;3.40;;
47153;SDS011;32907;41.412;2.164;2022-12-01T03:53:54;8.30;;;4.20;;
47153;SDS011;32907;41.412;2.164;2022-12-01T03:56:35;7.47;;;3.72;;
47153;SDS011;32907;41.412;2.164;2022-12-01T03:59:07;5.88;;;4.00;;
47153;SDS011;32907;41.412;2.164;2022-12-01T04:01:36;4.45;;;3.60;;
47153;SDS011;32907;41.412;2.164;2022-12-01T04:04:13;6.03;;;4.22;;
47153;SDS011;32907;41.412;2.164;2022-12-01T04:06:42;6.30;;;4.03;;
47153;SDS011;32907;41.412;2.164;2022-12-01T04:09:13;6.13;;;4.22;;
47153;SDS011;32907;41.412;2.164;2022-12-01T04:11:41;6.85;;;4.60;;
47153;SDS011;32907;41.412;2.164;2022-12-01T04:14:27;7.60;;;3.83;;
47153;SDS011;32907;41.412;2.164;2022-12-01T04:16:56;6.95;;;4.75;;
47153;SDS011;32907;41.412;2.164;2022-12-01T04:19:24;4.90;;;4.07;;
47153;SDS011;32907;41.412;2.164;2022-12-01T04:21:52;9.88;;;4.72;;
47153;SDS011;32907;41.412;2.164;2022-12-01T04:24:20;6.85;;;4.60;;
47153;SDS011;32907;41.412;2.164;2022-12-01T04:26:47;6.45;;;4.28;;
47153;SDS011;32907;41.412;2.164;2022-12-01T04:29:15;6.63;;;4.15;;
47153;SDS011;32907;41.412;2.164;2022-12-01T04:31:43;7.40;;;4.70;;
47153;SDS011;32907;41.412;2.164;2022-12-01T04:34:10;5.85;;;4.32;;
47153;SDS011;32907;41.412;2.164;2022-12-01T04:36:38;7.47;;;4.75;;
47153;SDS011;32907;41.412;2.164;2022-12-01T04:39:06;7.35;;;4.60;;
47153;SDS011;32907;41.412;2.164;2022-12-01T04:41:34;7.82;;;4.88;;
47153;SDS011;32907;41.412;2.164;2022-12-01T04:44:01;7.20;;;4.57;;
47153;SDS011;32907;41.412;2.164;2022-12-01T04:46:29;7.53;;;5.03;;
47153;SDS011;32907;41.412;2.164;2022-12-01T04:48:57;6.03;;;4.55;;
47153;SDS011;32907;41.412;2.164;2022-12-01T04:51:25;6.60;;;4.25;;
47153;SDS011;32907;41.412;2.164;2022-12-01T04:53:53;11.02;;;4.95;;
47153;SDS011;32907;41.412;2.164;2022-12-01T04:56:21;5.63;;;4.30;;
47153;SDS011;32907;41.412;2.164;2022-12-01T04:58:48;7.43;;;4.18;;
47153;SDS011;32907;41.412;2.164;2022-12-01T05:01:17;5.78;;;4.10;;
47153;SDS011;32907;41.412;2.164;2022-12-01T05:03:45;5.07;;;4.03;;
47153;SDS011;32907;41.412;2.164;2022-12-01T05:06:18;5.07;;;4.30;;
47153;SDS011;32907;41.412;2.164;2022-12-01T05:08:48;6.40;;;4.78;;
47153;SDS011;32907;41.412;2.164;2022-12-01T05:11:17;8.85;;;5.90;;
47153;SDS011;32907;41.412;2.164;2022-12-01T05:13:46;8.07;;;6.05;;
47153;SDS011;32907;41.412;2.164;2022-12-01T05:16:16;7.03;;;5.22;;
47153;SDS011;32907;41.412;2.164;2022-12-01T05:18:52;7.88;;;5.80;;
47153;SDS011;32907;41.412;2.164;2022-12-01T05:21:41;6.78;;;5.15;;
47153;SDS011;32907;41.412;2.164;2022-12-01T05:24:11;6.07;;;4.90;;
47153;SDS011;32907;41.412;2.164;2022-12-01T05:26:40;10.02;;;5.20;;
47153;SDS011;32907;41.412;2.164;2022-12-01T05:29:10;7.63;;;5.13;;
47153;SDS011;32907;41.412;2.164;2022-12-01T05:31:38;7.05;;;5.30;;
47153;SDS011;32907;41.412;2.164;2022-12-01T05:34:06;6.30;;;4.72;;
47153;SDS011;32907;41.412;2.164;2022-12-01T05:36:35;8.20;;;4.65;;
47153;SDS011;32907;41.412;2.164;2022-12-01T05:39:03;7.90;;;4.88;;
47153;SDS011;32907;41.412;2.164;2022-12-01T05:41:31;6.57;;;4.82;;
47153;SDS011;32907;41.412;2.164;2022-12-01T05:43:59;7.28;;;5.43;;
47153;SDS011;32907;41.412;2.164;2022-12-01T05:46:27;7.30;;;5.00;;
47153;SDS011;32907;41.412;2.164;2022-12-01T05:48:56;8.02;;;5.22;;
47153;SDS011;32907;41.412;2.164;2022-12-01T05:51:23;6.68;;;5.00;;
47153;SDS011;32907;41.412;2.164;2022-12-01T05:53:51;8.00;;;5.30;;
47153;SDS011;32907;41.412;2.164;2022-12-01T05:56:19;9.13;;;5.40;;
47153;SDS011;32907;41.412;2.164;2022-12-01T05:58:48;6.75;;;4.82;;
47153;SDS011;32907;41.412;2.164;2022-12-01T06:01:16;7.38;;;4.80;;
47153;SDS011;32907;41.412;2.164;2022-12-01T06:03:44;6.85;;;5.07;;
47153;SDS011;32907;41.412;2.164;2022-12-01T06:06:12;6.72;;;4.53;;
47153;SDS011;32907;41.412;2.164;2022-12-01T06:08:39;10.50;;;6.88;;
47153;SDS011;32907;41.412;2.164;2022-12-01T06:11:07;8.75;;;6.53;;
47153;SDS011;32907;41.412;2.164;2022-12-01T06:13:36;7.43;;;6.30;;
47153;SDS011;32907;41.412;2.164;2022-12-01T06:16:04;7.43;;;5.82;;
47153;SDS011;32907;41.412;2.164;2022-12-01T06:18:34;7.00;;;5.30;;
47153;SDS011;32907;41.412;2.164;2022-12-01T06:21:04;7.13;;;4.93;;
47153;SDS011;32907;41.412;2.164;2022-12-01T06:23:33;6.55;;;4.80;;
47153;SDS011;32907;41.412;2.164;2022-12-01T06:26:02;5.88;;;4.72;;
47153;SDS011;32907;41.412;2.164;2022-12-01T06:28:30;6.30;;;4.50;;
47153;SDS011;32907;41.412;2.164;2022-12-01T06:30:58;13.93;;;6.05;;
47153;SDS011;32907;41.412;2.164;2022-12-01T06:33:30;17.13;;;7.80;;
47153;SDS011;32907;41.412;2.164;2022-12-01T06:35:59;17.40;;;7.07;;
47153;SDS011;32907;41.412;2.164;2022-12-01T06:38:33;23.50;;;13.18;;
47153;SDS011;32907;41.412;2.164;2022-12-01T06:41:02;31.50;;;16.10;;
47153;SDS011;32907;41.412;2.164;2022-12-01T06:43:34;23.00;;;13.70;;
47153;SDS011;32907;41.412;2.164;2022-12-01T06:46:05;18.83;;;11.23;;
47153;SDS011;32907;41.412;2.164;2022-12-01T06:48:33;17.42;;;9.48;;
47153;SDS011;32907;41.412;2.164;2022-12-01T06:51:01;17.05;;;8.25;;
47153;SDS011;32907;41.412;2.164;2022-12-01T06:53:29;13.73;;;7.07;;
47153;SDS011;32907;41.412;2.164;2022-12-01T06:56:03;13.80;;;6.57;;
47153;SDS011;32907;41.412;2.164;2022-12-01T06:58:32;9.13;;;5.40;;
47153;SDS011;32907;41.412;2.164;2022-12-01T07:01:06;7.78;;;5.57;;
47153;SDS011;32907;41.412;2.164;2022-12-01T07:03:36;8.48;;;5.28;;
47153;SDS011;32907;41.412;2.164;2022-12-01T07:06:05;8.38;;;4.88;;
47153;SDS011;32907;41.412;2.164;2022-12-01T07:08:33;10.38;;;5.38;;
47153;SDS011;32907;41.412;2.164;2022-12-01T07:11:06;8.50;;;5.55;;
47153;SDS011;32907;41.412;2.164;2022-12-01T07:13:36;11.68;;;5.57;;
47153;SDS011;32907;41.412;2.164;2022-12-01T07:16:05;14.70;;;10.20;;
47153;SDS011;32907;41.412;2.164;2022-12-01T07:18:34;11.98;;;8.82;;
47153;SDS011;32907;41.412;2.164;2022-12-01T07:21:04;14.82;;;8.10;;
47153;SDS011;32907;41.412;2.164;2022-12-01T07:23:35;10.70;;;7.75;;
47153;SDS011;32907;41.412;2.164;2022-12-01T07:26:04;12.45;;;7.72;;
47153;SDS011;32907;41.412;2.164;2022-12-01T07:28:34;11.05;;;6.60;;
47153;SDS011;32907;41.412;2.164;2022-12-01T07:31:06;11.50;;;6.32;;
47153;SDS011;32907;41.412;2.164;2022-12-01T07:33:34;12.38;;;6.63;;
47153;SDS011;32907;41.412;2.164;2022-12-01T07:36:03;9.63;;;5.93;;
47153;SDS011;32907;41.412;2.164;2022-12-01T07:38:32;9.30;;;5.60;;
47153;SDS011;32907;41.412;2.164;2022-12-01T07:41:08;12.52;;;6.60;;
47153;SDS011;32907;41.412;2.164;2022-12-01T07:43:38;9.90;;;6.88;;
47153;SDS011;32907;41.412;2.164;2022-12-01T07:46:08;9.35;;;6.60;;
47153;SDS011;32907;41.412;2.164;2022-12-01T07:48:48;10.02;;;7.50;;
47153;SDS011;32907;41.412;2.164;2022-12-01T07:51:16;10.98;;;7.55;;
47153;SDS011;32907;41.412;2.164;2022-12-01T07:53:44;11.02;;;6.90;;
47153;SDS011;32907;41.412;2.164;2022-12-01T07:56:14;12.57;;;7.88;;
47153;SDS011;32907;41.412;2.164;2022-12-01T07:58:42;9.50;;;5.85;;
47153;SDS011;32907;41.412;2.164;2022-12-01T08:01:12;11.07;;;6.15;;
47153;SDS011;32907;41.412;2.164;2022-12-01T08:03:42;10.57;;;5.55;;
47153;SDS011;32907;41.412;2.164;2022-12-01T08:06:10;6.85;;;5.47;;
47153;SDS011;32907;41.412;2.164;2022-12-01T08:08:39;13.43;;;5.20;;
47153;SDS011;32907;41.412;2.164;2022-12-01T08:11:11;9.02;;;4.63;;
47153;SDS011;32907;41.412;2.164;2022-12-01T08:13:46;9.55;;;5.18;;
47153;SDS011;32907;41.412;2.164;2022-12-01T08:16:17;7.45;;;4.47;;
47153;SDS011;32907;41.412;2.164;2022-12-01T08:18:46;9.05;;;5.20;;
47153;SDS011;32907;41.412;2.164;2022-12-01T08:21:16;10.50;;;4.55;;
47153;SDS011;32907;41.412;2.164;2022-12-01T08:23:52;13.10;;;5.07;;
47153;SDS011;32907;41.412;2.164;2022-12-01T08:26:21;11.55;;;5.18;;
47153;SDS011;32907;41.412;2.164;2022-12-01T08:28:50;11.00;;;4.60;;
47153;SDS011;32907;41.412;2.164;2022-12-01T08:31:20;9.63;;;4.18;;
47153;SDS011;32907;41.412;2.164;2022-12-01T08:33:53;9.43;;;4.50;;
47153;SDS011;32907;41.412;2.164;2022-12-01T08:36:21;13.65;;;4.43;;
47153;SDS011;32907;41.412;2.164;2022-12-01T08:38:50;13.18;;;5.90;;
47153;SDS011;32907;41.412;2.164;2022-12-01T08:41:20;9.48;;;5.97;;
47153;SDS011;32907;41.412;2.164;2022-12-01T08:43:48;11.48;;;5.68;;
47153;SDS011;32907;41.412;2.164;2022-12-01T08:46:25;7.35;;;4.90;;
47153;SDS011;32907;41.412;2.164;2022-12-01T08:48:59;8.07;;;4.25;;
47153;SDS011;32907;41.412;2.164;2022-12-01T08:51:27;6.70;;;3.97;;
47153;SDS011;32907;41.412;2.164;2022-12-01T08:53:56;9.93;;;4.45;;
47153;SDS011;32907;41.412;2.164;2022-12-01T08:56:30;9.07;;;4.38;;
47153;SDS011;32907;41.412;2.164;2022-12-01T08:59:00;9.82;;;4.32;;
47153;SDS011;32907;41.412;2.164;2022-12-01T09:01:29;8.18;;;4.20;;
47153;SDS011;32907;41.412;2.164;2022-12-01T09:03:57;9.13;;;4.40;;
47153;SDS011;32907;41.412;2.164;2022-12-01T09:06:39;10.43;;;6.03;;
47153;SDS011;32907;41.412;2.164;2022-12-01T09:09:09;9.25;;;5.28;;
47153;SDS011;32907;41.412;2.164;2022-12-01T09:11:39;9.35;;;5.65;;
47153;SDS011;32907;41.412;2.164;2022-12-01T09:14:13;9.80;;;5.70;;
47153;SDS011;32907;41.412;2.164;2022-12-01T09:16:43;7.22;;;4.32;;
47153;SDS011;32907;41.412;2.164;2022-12-01T09:19:12;10.30;;;4.85;;
47153;SDS011;32907;41.412;2.164;2022-12-01T09:21:48;8.20;;;4.97;;
47153;SDS011;32907;41.412;2.164;2022-12-01T09:24:15;7.90;;;4.47;;
47153;SDS011;32907;41.412;2.164;2022-12-01T09:26:45;8.43;;;4.68;;
47153;SDS011;32907;41.412;2.164;2022-12-01T09:29:13;8.57;;;4.00;;
47153;SDS011;32907;41.412;2.164;2022-12-01T09:31:42;7.15;;;4.05;;
47153;SDS011;32907;41.412;2.164;2022-12-01T09:34:11;9.70;;;4.00;;
47153;SDS011;32907;41.412;2.164;2022-12-01T09:36:41;5.45;;;3.83;;
47153;SDS011;32907;41.412;2.164;2022-12-01T09:39:12;7.55;;;3.70;;
47153;SDS011;32907;41.412;2.164;2022-12-01T09:44:52;6.60;;;4.18;;
47153;SDS011;32907;41.412;2.164;2022-12-01T09:47:29;8.70;;;5.00;;
47153;SDS011;32907;41.412;2.164;2022-12-01T09:52:47;12.15;;;4.82;;
47153;SDS011;32907;41.412;2.164;2022-12-01T09:57:54;6.53;;;4.28;;
47153;SDS011;32907;41.412;2.164;2022-12-01T10:00:28;8.30;;;3.85;;
47153;SDS011;32907;41.412;2.164;2022-12-01T10:05:43;9.25;;;4.13;;
47153;SDS011;32907;41.412;2.164;2022-12-01T10:08:34;9.35;;;5.05;;
47153;SDS011;32907;41.412;2.164;2022-12-01T10:11:26;15.70;;;8.45;;
47153;SDS011;32907;41.412;2.164;2022-12-01T10:14:00;13.25;;;8.05;;
47153;SDS011;32907;41.412;2.164;2022-12-01T10:16:34;13.38;;;6.43;;
47153;SDS011;32907;41.412;2.164;2022-12-01T10:25:11;8.38;;;4.55;;
47153;SDS011;32907;41.412;2.164;2022-12-01T10:30:31;9.80;;;4.77;;
47153;SDS011;32907;41.412;2.164;2022-12-01T10:33:15;9.95;;;4.20;;
47153;SDS011;32907;41.412;2.164;2022-12-01T10:36:00;11.68;;;4.13;;
47153;SDS011;32907;41.412;2.164;2022-12-01T10:38:33;10.32;;;5.22;;
47153;SDS011;32907;41.412;2.164;2022-12-01T10:41:04;13.75;;;6.28;;
47153;SDS011;32907;41.412;2.164;2022-12-01T10:43:42;11.05;;;6.07;;
47153;SDS011;32907;41.412;2.164;2022-12-01T10:46:33;8.98;;;5.30;;
47153;SDS011;32907;41.412;2.164;2022-12-01T10:49:11;10.10;;;5.10;;
47153;SDS011;32907;41.412;2.164;2022-12-01T10:51:59;7.25;;;4.40;;
47153;SDS011;32907;41.412;2.164;2022-12-01T10:54:31;11.55;;;5.35;;
47153;SDS011;32907;41.412;2.164;2022-12-01T10:57:02;8.15;;;4.72;;
47153;SDS011;32907;41.412;2.164;2022-12-01T10:59:36;7.75;;;4.47;;
47153;SDS011;32907;41.412;2.164;2022-12-01T11:02:14;11.15;;;4.53;;
47153;SDS011;32907;41.412;2.164;2022-12-01T11:04:54;12.25;;;5.05;;
47153;SDS011;32907;41.412;2.164;2022-12-01T11:07:30;8.93;;;4.85;;
47153;SDS011;32907;41.412;2.164;2022-12-01T11:12:28;8.18;;;4.07;;
47153;SDS011;32907;41.412;2.164;2022-12-01T11:14:57;6.75;;;4.38;;
47153;SDS011;32907;41.412;2.164;2022-12-01T11:28:40;9.40;;;5.78;;
47153;SDS011;32907;41.412;2.164;2022-12-01T11:31:18;8.68;;;5.32;;
47153;SDS011;32907;41.412;2.164;2022-12-01T11:33:52;12.50;;;6.03;;
47153;SDS011;32907;41.412;2.164;2022-12-01T11:38:57;9.23;;;4.93;;
47153;SDS011;32907;41.412;2.164;2022-12-01T11:41:28;9.63;;;4.88;;
47153;SDS011;32907;41.412;2.164;2022-12-01T11:44:00;9.90;;;5.50;;
47153;SDS011;32907;41.412;2.164;2022-12-01T11:46:43;7.78;;;5.75;;
47153;SDS011;32907;41.412;2.164;2022-12-01T11:49:23;7.95;;;6.03;;
47153;SDS011;32907;41.412;2.164;2022-12-01T11:51:54;9.85;;;6.57;;
47153;SDS011;32907;41.412;2.164;2022-12-01T11:54:23;7.65;;;5.88;;
47153;SDS011;32907;41.412;2.164;2022-12-01T11:56:52;11.65;;;6.63;;
47153;SDS011;32907;41.412;2.164;2022-12-01T11:59:40;10.00;;;6.32;;
47153;SDS011;32907;41.412;2.164;2022-12-01T12:16:20;5.93;;;4.75;;
47153;SDS011;32907;41.412;2.164;2022-12-01T12:22:40;8.75;;;4.90;;
47153;SDS011;32907;41.412;2.164;2022-12-01T12:28:27;7.03;;;4.43;;
47153;SDS011;32907;41.412;2.164;2022-12-01T12:40:08;16.95;;;11.80;;
47153;SDS011;32907;41.412;2.164;2022-12-01T12:43:05;16.27;;;11.63;;
47153;SDS011;32907;41.412;2.164;2022-12-01T12:51:57;13.88;;;10.30;;
47153;SDS011;32907;41.412;2.164;2022-12-01T12:54:39;14.85;;;10.43;;
47153;SDS011;32907;41.412;2.164;2022-12-01T12:57:17;14.25;;;9.85;;
47153;SDS011;32907;41.412;2.164;2022-12-01T13:00:04;13.85;;;9.73;;
47153;SDS011;32907;41.412;2.164;2022-12-01T13:02:41;14.50;;;8.48;;
47153;SDS011;32907;41.412;2.164;2022-12-01T13:08:22;10.35;;;6.57;;
47153;SDS011;32907;41.412;2.164;2022-12-01T13:16:32;7.70;;;4.38;;
47153;SDS011;32907;41.412;2.164;2022-12-01T13:19:46;6.57;;;3.97;;
47153;SDS011;32907;41.412;2.164;2022-12-01T13:21:57;6.88;;;4.10;;
47153;SDS011;32907;41.412;2.164;2022-12-01T13:24:27;6.93;;;4.30;;
47153;SDS011;32907;41.412;2.164;2022-12-01T13:29:37;12.43;;;6.28;;
47153;SDS011;32907;41.412;2.164;2022-12-01T14:00:30;6.10;;;3.85;;
47153;SDS011;32907;41.412;2.164;2022-12-01T14:08:26;7.68;;;4.95;;
47153;SDS011;32907;41.412;2.164;2022-12-01T14:10:56;5.93;;;4.10;;
47153;SDS011;32907;41.412;2.164;2022-12-01T14:16:10;7.75;;;4.68;;
47153;SDS011;32907;41.412;2.164;2022-12-01T14:18:39;7.20;;;5.47;;
47153;SDS011;32907;41.412;2.164;2022-12-01T14:21:14;5.82;;;4.10;;
47153;SDS011;32907;41.412;2.164;2022-12-01T14:24:03;6.22;;;4.57;;
47153;SDS011;32907;41.412;2.164;2022-12-01T14:26:32;10.60;;;4.78;;
47153;SDS011;32907;41.412;2.164;2022-12-01T14:29:23;7.65;;;4.53;;
47153;SDS011;32907;41.412;2.164;2022-12-01T14:34:19;6.65;;;4.53;;
47153;SDS011;32907;41.412;2.164;2022-12-01T14:36:51;7.57;;;4.93;;
47153;SDS011;32907;41.412;2.164;2022-12-01T14:39:25;7.75;;;5.18;;
47153;SDS011;32907;41.412;2.164;2022-12-01T14:44:46;5.45;;;3.92;;
47153;SDS011;32907;41.412;2.164;2022-12-01T14:47:39;5.45;;;3.25;;
47153;SDS011;32907;41.412;2.164;2022-12-01T14:50:23;5.95;;;3.25;;
47153;SDS011;32907;41.412;2.164;2022-12-01T14:53:35;6.40;;;3.72;;
47153;SDS011;32907;41.412;2.164;2022-12-01T14:55:57;9.68;;;4.15;;
47153;SDS011;32907;41.412;2.164;2022-12-01T14:58:35;9.70;;;4.88;;
47153;SDS011;32907;41.412;2.164;2022-12-01T15:03:33;6.97;;;4.40;;
47153;SDS011;32907;41.412;2.164;2022-12-01T15:06:07;9.45;;;4.72;;
47153;SDS011;32907;41.412;2.164;2022-12-01T15:08:36;24.08;;;8.10;;
47153;SDS011;32907;41.412;2.164;2022-12-01T15:11:21;19.88;;;6.85;;
47153;SDS011;32907;41.412;2.164;2022-12-01T15:13:53;12.13;;;5.38;;
47153;SDS011;32907;41.412;2.164;2022-12-01T15:16:22;7.20;;;4.22;;
47153;SDS011;32907;41.412;2.164;2022-12-01T15:18:52;12.73;;;4.75;;
47153;SDS011;32907;41.412;2.164;2022-12-01T15:21:27;8.98;;;4.95;;
47153;SDS011;32907;41.412;2.164;2022-12-01T15:26:33;6.57;;;4.05;;
47153;SDS011;32907;41.412;2.164;2022-12-01T15:29:13;5.38;;;3.40;;
47153;SDS011;32907;41.412;2.164;2022-12-01T15:31:45;8.80;;;4.13;;
47153;SDS011;32907;41.412;2.164;2022-12-01T15:34:20;8.18;;;3.88;;
47153;SDS011;32907;41.412;2.164;2022-12-01T15:36:50;6.43;;;3.70;;
47153;SDS011;32907;41.412;2.164;2022-12-01T15:39:21;7.53;;;3.78;;
47153;SDS011;32907;41.412;2.164;2022-12-01T15:41:56;5.63;;;4.05;;
47153;SDS011;32907;41.412;2.164;2022-12-01T15:44:31;6.45;;;4.28;;
47153;SDS011;32907;41.412;2.164;2022-12-01T15:50:30;5.97;;;3.45;;
47153;SDS011;32907;41.412;2.164;2022-12-01T15:53:20;6.82;;;3.30;;
47153;SDS011;32907;41.412;2.164;2022-12-01T15:55:51;6.70;;;4.65;;
47153;SDS011;32907;41.412;2.164;2022-12-01T15:58:26;8.75;;;5.45;;
47153;SDS011;32907;41.412;2.164;2022-12-01T16:01:02;7.18;;;4.15;;
47153;SDS011;32907;41.412;2.164;2022-12-01T16:03:48;7.97;;;3.90;;
47153;SDS011;32907;41.412;2.164;2022-12-01T16:08:53;5.18;;;2.80;;
47153;SDS011;32907;41.412;2.164;2022-12-01T16:11:23;5.53;;;2.90;;
47153;SDS011;32907;41.412;2.164;2022-12-01T16:14:04;5.32;;;3.17;;
47153;SDS011;32907;41.412;2.164;2022-12-01T16:16:48;5.38;;;3.00;;
47153;SDS011;32907;41.412;2.164;2022-12-01T16:24:19;13.68;;;9.30;;
47153;SDS011;32907;41.412;2.164;2022-12-01T16:26:48;9.38;;;7.07;;
47153;SDS011;32907;41.412;2.164;2022-12-01T16:29:19;12.32;;;6.15;;
47153;SDS011;32907;41.412;2.164;2022-12-01T16:31:49;8.15;;;4.25;;
47153;SDS011;32907;41.412;2.164;2022-12-01T16:34:37;7.78;;;3.67;;
47153;SDS011;32907;41.412;2.164;2022-12-01T16:37:13;5.28;;;3.47;;
47153;SDS011;32907;41.412;2.164;2022-12-01T16:39:41;6.05;;;3.22;;
47153;SDS011;32907;41.412;2.164;2022-12-01T16:42:11;7.90;;;2.88;;
47153;SDS011;32907;41.412;2.164;2022-12-01T16:44:40;5.00;;;2.72;;
47153;SDS011;32907;41.412;2.164;2022-12-01T16:47:23;4.82;;;2.90;;
47153;SDS011;32907;41.412;2.164;2022-12-01T16:49:51;8.80;;;3.55;;
47153;SDS011;32907;41.412;2.164;2022-12-01T16:52:19;7.28;;;3.50;;
47153;SDS011;32907;41.412;2.164;2022-12-01T16:58:01;6.30;;;2.92;;
47153;SDS011;32907;41.412;2.164;2022-12-01T17:00:29;8.73;;;4.05;;
47153;SDS011;32907;41.412;2.164;2022-12-01T17:02:57;8.82;;;5.13;;
47153;SDS011;32907;41.412;2.164;2022-12-01T17:05:25;8.57;;;5.40;;
47153;SDS011;32907;41.412;2.164;2022-12-01T17:07:53;6.50;;;4.57;;
47153;SDS011;32907;41.412;2.164;2022-12-01T17:10:21;6.22;;;3.70;;
47153;SDS011;32907;41.412;2.164;2022-12-01T17:12:50;8.90;;;3.25;;
47153;SDS011;32907;41.412;2.164;2022-12-01T17:15:18;4.57;;;2.90;;
47153;SDS011;32907;41.412;2.164;2022-12-01T17:17:46;5.30;;;3.03;;
47153;SDS011;32907;41.412;2.164;2022-12-01T17:20:14;5.38;;;3.17;;
47153;SDS011;32907;41.412;2.164;2022-12-01T17:22:42;8.35;;;3.60;;
47153;SDS011;32907;41.412;2.164;2022-12-01T17:25:10;6.97;;;3.28;;
47153;SDS011;32907;41.412;2.164;2022-12-01T17:27:38;6.63;;;3.50;;
47153;SDS011;32907;41.412;2.164;2022-12-01T17:30:06;7.63;;;3.50;;
47153;SDS011;32907;41.412;2.164;2022-12-01T17:32:34;5.05;;;3.30;;
47153;SDS011;32907;41.412;2.164;2022-12-01T17:35:03;4.15;;;2.97;;
47153;SDS011;32907;41.412;2.164;2022-12-01T17:37:31;6.07;;;3.00;;
47153;SDS011;32907;41.412;2.164;2022-12-01T17:39:59;5.03;;;3.45;;
47153;SDS011;32907;41.412;2.164;2022-12-01T17:42:29;5.63;;;3.05;;
47153;SDS011;32907;41.412;2.164;2022-12-01T17:44:57;6.57;;;3.13;;
47153;SDS011;32907;41.412;2.164;2022-12-01T17:47:26;4.13;;;2.50;;
47153;SDS011;32907;41.412;2.164;2022-12-01T17:49:54;5.80;;;2.65;;
47153;SDS011;32907;41.412;2.164;2022-12-01T17:52:22;3.72;;;2.67;;
47153;SDS011;32907;41.412;2.164;2022-12-01T17:54:54;4.97;;;2.80;;
47153;SDS011;32907;41.412;2.164;2022-12-01T17:57:22;3.97;;;2.90;;
47153;SDS011;32907;41.412;2.164;2022-12-01T17:59:51;5.72;;;2.72;;
47153;SDS011;32907;41.412;2.164;2022-12-01T18:02:19;7.68;;;2.78;;
47153;SDS011;32907;41.412;2.164;2022-12-01T18:04:47;4.53;;;2.85;;
47153;SDS011;32907;41.412;2.164;2022-12-01T18:07:16;3.35;;;2.33;;
47153;SDS011;32907;41.412;2.164;2022-12-01T18:09:43;4.40;;;2.47;;
47153;SDS011;32907;41.412;2.164;2022-12-01T18:12:11;3.90;;;2.97;;
47153;SDS011;32907;41.412;2.164;2022-12-01T18:14:39;5.40;;;3.00;;
47153;SDS011;32907;41.412;2.164;2022-12-01T18:17:07;4.70;;;2.78;;
47153;SDS011;32907;41.412;2.164;2022-12-01T18:19:35;3.67;;;2.55;;